Time;durP1;ratioP1;P1;durP2;ratioP2;P2;SDS_P1;SDS_P2;PMS_P1;PMS_P2;Temp;Humidity;BMP_temperature;BMP_pressure;BME280_temperature;BME280_humidity;BME280_pressure;Samples;Min_cycle;Max_cycle;Signal;HPM_P1;HPM_P2
2023/09/27 00:00:10;;;;;;;1.92;1.33;;;;;;;14.68;81.64;99876.44;330994;29;4492;-90
2023/09/27 00:00:22;;;;;;;1.58;1.23;;;;;;;14.70;81.37;99873.75;329317;29;16381;-89
2023/09/27 00:00:36;;;;;;;1.38;1.08;;;;;;;14.73;81.33;99874.47;332043;29;4735;-89
2023/09/27 00:00:48;;;;;;;2.50;1.20;;;;;;;14.74;81.06;99870.91;329521;29;18685;-89
2023/09/27 00:01:00;;;;;;;2.63;1.30;;;;;;;14.76;80.77;99878.72;332177;29;4480;-89
2023/09/27 00:01:12;;;;;;;2.28;1.25;;;;;;;14.77;80.88;99873.41;332259;29;18538;-89
2023/09/27 00:01:24;;;;;;;2.10;1.40;;;;;;;14.76;80.89;99879.53;330929;29;18798;-89
2023/09/27 00:01:37;;;;;;;2.33;1.50;;;;;;;14.77;80.96;99876.03;332470;29;4487;-89
2023/09/27 00:01:50;;;;;;;1.88;1.40;;;;;;;14.76;80.96;99879.53;329239;29;5391;-90
2023/09/27 00:02:02;;;;;;;2.30;1.52;;;;;;;14.78;80.79;99876.88;332167;29;4467;-89
2023/09/27 00:02:14;;;;;;;2.30;1.67;;;;;;;14.80;80.78;99876.81;329601;29;18224;-89
2023/09/27 00:02:27;;;;;;;2.20;1.52;;;;;;;14.78;80.73;99879.47;333558;29;5101;-89
2023/09/27 00:02:42;;;;;;;1.92;1.52;;;;;;;14.80;80.88;99880.25;329416;29;17111;-89
2023/09/27 00:02:55;;;;;;;1.50;1.30;;;;;;;14.81;80.70;99873.25;329682;29;16296;-87
2023/09/27 00:03:07;;;;;;;1.23;1.13;;;;;;;14.78;80.74;99882.09;331409;29;5027;-87
2023/09/27 00:03:20;;;;;;;1.60;1.20;;;;;;;14.75;81.29;99883.09;327968;29;18288;-87
2023/09/27 00:03:32;;;;;;;1.77;1.20;;;;;;;14.76;81.16;99883.94;332473;29;4567;-86
2023/09/27 00:03:44;;;;;;;1.80;1.35;;;;;;;14.74;80.90;99881.38;330935;29;10795;-86
2023/09/27 00:03:56;;;;;;;1.80;1.42;;;;;;;14.74;81.00;99878.75;333770;29;4668;-86
2023/09/27 00:04:08;;;;;;;1.33;1.23;;;;;;;14.76;80.70;99878.72;333207;29;4559;-86
2023/09/27 00:04:20;;;;;;;1.20;1.10;;;;;;;14.75;80.84;99877.88;329618;29;17404;-87
2023/09/27 00:04:32;;;;;;;1.20;1.10;;;;;;;14.76;80.88;99874.31;332426;29;4691;-86
2023/09/27 00:04:44;;;;;;;1.58;1.27;;;;;;;14.74;81.00;99875.31;327913;29;4589;-86
2023/09/27 00:04:56;;;;;;;1.90;1.20;;;;;;;14.72;81.41;99878.00;329579;29;18467;-86
2023/09/27 00:05:10;;;;;;;2.22;1.38;;;;;;;14.70;81.68;99874.59;332120;29;5338;-87
2023/09/27 00:05:23;;;;;;;1.60;1.33;;;;;;;14.66;82.17;99878.28;329968;29;18428;-87
2023/09/27 00:05:36;;;;;;;1.50;1.33;;;;;;;14.68;82.26;99880.81;329658;29;17676;-86
2023/09/27 00:05:50;;;;;;;1.80;1.35;;;;;;;14.68;82.03;99881.66;332155;29;5273;-87
2023/09/27 00:06:02;;;;;;;1.80;1.30;;;;;;;14.68;81.95;99876.44;327614;29;18150;-86
2023/09/27 00:06:14;;;;;;;1.77;1.38;;;;;;;14.69;81.77;99878.16;330667;29;4565;-87
2023/09/27 00:06:27;;;;;;;1.52;1.25;;;;;;;14.69;81.73;99872.91;329556;29;17754;-87
2023/09/27 00:06:39;;;;;;;1.40;1.30;;;;;;;14.70;81.78;99874.59;333342;29;4785;-86
2023/09/27 00:06:51;;;;;;;1.30;1.20;;;;;;;14.68;82.22;99872.97;330584;29;18094;-87
2023/09/27 00:07:03;;;;;;;1.50;1.27;;;;;;;14.69;82.08;99878.16;333166;29;4563;-86
2023/09/27 00:07:15;;;;;;;2.75;1.35;;;;;;;14.68;82.11;99872.97;333606;29;4642;-86
2023/09/27 00:07:27;;;;;;;3.15;1.50;;;;;;;14.69;82.24;99878.16;331219;29;16943;-86
2023/09/27 00:07:41;;;;;;;3.03;1.50;;;;;;;14.72;81.94;99877.16;333524;29;4541;-87
2023/09/27 00:07:53;;;;;;;2.08;1.38;;;;;;;14.72;82.04;99872.75;331187;29;17994;-86
2023/09/27 00:08:06;;;;;;;1.92;1.40;;;;;;;14.71;82.05;99876.31;334583;29;4660;-86
2023/09/27 00:08:18;;;;;;;1.65;1.50;;;;;;;14.72;81.65;99878.00;331071;29;18975;-87
2023/09/27 00:08:31;;;;;;;1.83;1.50;;;;;;;14.76;82.01;99876.09;333085;29;4612;-87
2023/09/27 00:08:43;;;;;;;1.75;1.40;;;;;;;14.76;81.69;99874.31;330669;29;17930;-87
2023/09/27 00:08:55;;;;;;;1.42;1.23;;;;;;;14.76;81.91;99873.47;333041;29;4593;-87
2023/09/27 00:09:08;;;;;;;1.88;1.40;;;;;;;14.73;82.09;99879.69;330222;29;16338;-86
2023/09/27 00:09:20;;;;;;;2.10;1.40;;;;;;;14.73;82.26;99871.00;333191;29;4738;-86
2023/09/27 00:09:34;;;;;;;2.78;1.27;;;;;;;14.75;82.19;99875.25;326292;29;18347;-87
2023/09/27 00:09:47;;;;;;;3.83;1.25;;;;;;;14.73;82.10;99873.63;330394;29;19121;-87
2023/09/27 00:10:00;;;;;;;3.90;1.42;;;;;;;14.75;81.98;99872.63;332202;29;4480;-87
2023/09/27 00:10:12;;;;;;;2.63;1.67;;;;;;;14.76;82.19;99874.31;328900;29;17660;-87
2023/09/27 00:10:24;;;;;;;2.45;1.50;;;;;;;14.77;81.85;99870.78;330572;29;17718;-86
2023/09/27 00:10:37;;;;;;;2.28;1.50;;;;;;;14.76;81.99;99869.06;332293;29;4534;-85
2023/09/27 00:10:49;;;;;;;2.10;1.52;;;;;;;14.78;82.02;99872.47;329415;29;18571;-86
2023/09/27 00:11:02;;;;;;;2.08;1.50;;;;;;;14.78;82.22;99866.41;330883;29;4668;-86
2023/09/27 00:11:14;;;;;;;1.60;1.45;;;;;;;14.77;82.57;99865.56;328308;29;17837;-86
2023/09/27 00:11:26;;;;;;;1.90;1.45;;;;;;;14.78;82.13;99869.84;330944;29;4483;-87
2023/09/27 00:11:38;;;;;;;3.60;1.45;;;;;;;14.81;81.77;99868.00;329092;29;18148;-86
2023/09/27 00:11:50;;;;;;;3.30;1.20;;;;;;;14.81;81.99;99871.50;334460;29;4652;-86
2023/09/27 00:12:04;;;;;;;2.03;1.30;;;;;;;14.80;81.84;99868.94;332810;29;4557;-86
2023/09/27 00:12:18;;;;;;;2.22;1.42;;;;;;;14.80;81.88;99868.94;331991;29;18215;-86
2023/09/27 00:12:31;;;;;;;1.90;1.50;;;;;;;14.80;81.75;99866.34;330522;29;18884;-86
2023/09/27 00:12:43;;;;;;;1.70;1.40;;;;;;;14.81;81.47;99871.50;331048;29;4479;-86
2023/09/27 00:12:55;;;;;;;1.92;1.40;;;;;;;14.82;81.67;99867.13;332352;29;4711;-86
2023/09/27 00:13:08;;;;;;;2.17;1.40;;;;;;;14.83;81.47;99874.91;333415;29;4625;-86
2023/09/27 00:13:20;;;;;;;2.55;1.63;;;;;;;14.84;81.62;99865.28;330252;29;18006;-86
2023/09/27 00:13:32;;;;;;;2.10;1.50;;;;;;;14.84;81.65;99870.50;331844;29;4704;-87
2023/09/27 00:13:44;;;;;;;1.48;1.30;;;;;;;14.83;81.54;99869.66;325921;29;9230;-87
2023/09/27 00:13:56;;;;;;;1.40;1.30;;;;;;;14.84;81.30;99865.28;331198;29;17089;-87
2023/09/27 00:14:08;;;;;;;1.65;1.40;;;;;;;14.85;81.42;99872.19;332476;29;4527;-86
2023/09/27 00:14:20;;;;;;;1.95;1.48;;;;;;;14.86;81.30;99874.75;330271;29;17725;-87
2023/09/27 00:14:32;;;;;;;1.98;1.45;;;;;;;14.87;81.22;99867.72;333243;29;4514;-87
2023/09/27 00:14:44;;;;;;;1.60;1.42;;;;;;;14.87;81.14;99870.34;331863;29;9484;-86
2023/09/27 00:14:57;;;;;;;1.60;1.40;;;;;;;14.86;81.07;99863.44;332848;29;17310;-85
2023/09/27 00:15:11;;;;;;;1.75;1.40;;;;;;;14.87;81.31;99875.56;334362;29;4530;-86
2023/09/27 00:15:25;;;;;;;2.42;1.50;;;;;;;14.89;80.84;99868.50;327024;29;17713;-87
2023/09/27 00:15:37;;;;;;;2.63;1.50;;;;;;;14.90;80.88;99870.22;333260;29;4594;-87
2023/09/27 00:15:49;;;;;;;2.97;1.50;;;;;;;14.91;80.99;99871.91;335391;28;4729;-86
2023/09/27 00:16:01;;;;;;;2.92;1.40;;;;;;;14.90;80.75;99873.66;330613;29;4551;-86
2023/09/27 00:16:13;;;;;;;2.38;1.40;;;;;;;14.92;80.91;99874.44;332316;29;4514;-86
2023/09/27 00:16:26;;;;;;;2.00;1.40;;;;;;;14.92;80.73;99874.44;329548;29;16911;-86
2023/09/27 00:16:38;;;;;;;1.80;1.50;;;;;;;14.93;80.55;99870.94;333016;29;4566;-87
2023/09/27 00:16:50;;;;;;;2.30;1.40;;;;;;;14.94;80.70;99871.75;331628;29;4650;-87
2023/09/27 00:17:03;;;;;;;2.10;1.30;;;;;;;14.95;80.73;99873.44;328131;29;16628;-87
2023/09/27 00:17:15;;;;;;;1.60;1.25;;;;;;;14.97;80.61;99869.03;332179;29;4747;-86
2023/09/27 00:17:31;;;;;;;2.22;1.40;;;;;;;14.97;80.55;99876.88;330481;29;18346;-86
2023/09/27 00:17:43;;;;;;;2.63;1.60;;;;;;;14.96;80.35;99876.00;330684;29;17405;-86
2023/09/27 00:17:55;;;;;;;1.88;1.42;;;;;;;14.94;80.33;99877.84;333063;29;4583;-86
2023/09/27 00:18:07;;;;;;;1.52;1.30;;;;;;;14.95;80.56;99879.56;331713;29;17901;-86
2023/09/27 00:18:19;;;;;;;1.45;1.25;;;;;;;14.94;80.28;99874.38;329942;29;4661;-86
2023/09/27 00:18:32;;;;;;;1.50;1.30;;;;;;;14.93;80.45;99875.28;331672;29;18338;-87
2023/09/27 00:18:45;;;;;;;1.40;1.30;;;;;;;14.91;80.77;99878.00;333826;29;4492;-87
2023/09/27 00:18:57;;;;;;;1.55;1.42;;;;;;;14.89;81.30;99878.97;330472;29;16204;-86
2023/09/27 00:19:10;;;;;;;1.70;1.40;;;;;;;14.91;81.05;99874.50;331137;29;4803;-87
2023/09/27 00:19:22;;;;;;;2.10;1.40;;;;;;;14.89;80.82;99873.72;327895;29;18256;-86
2023/09/27 00:19:34;;;;;;;2.30;1.38;;;;;;;14.90;80.96;99880.69;330652;29;4590;-86
2023/09/27 00:19:46;;;;;;;2.00;1.35;;;;;;;14.91;81.04;99877.13;331601;29;4583;-86
2023/09/27 00:19:58;;;;;;;1.80;1.35;;;;;;;14.91;80.97;99884.97;328199;29;17392;-86
2023/09/27 00:20:12;;;;;;;2.00;1.33;;;;;;;14.89;81.03;99878.97;330970;29;4677;-86
2023/09/27 00:20:24;;;;;;;2.30;1.50;;;;;;;14.90;80.89;99880.69;329276;29;18077;-86
2023/09/27 00:20:37;;;;;;;2.58;1.70;;;;;;;14.91;80.88;99883.25;329962;29;4686;-86
2023/09/27 00:20:49;;;;;;;2.35;1.55;;;;;;;14.91;81.42;99874.50;330308;29;16078;-86
2023/09/27 00:21:01;;;;;;;2.50;1.70;;;;;;;14.91;81.28;99879.75;332232;29;5578;-86
2023/09/27 00:21:13;;;;;;;2.33;1.60;;;;;;;14.90;80.98;99875.44;332426;29;4525;-86
2023/09/27 00:21:25;;;;;;;2.05;1.52;;;;;;;14.91;80.86;99884.97;335962;28;4534;-86
2023/09/27 00:21:37;;;;;;;1.92;1.52;;;;;;;14.92;80.99;99878.84;332545;29;5342;-86
2023/09/27 00:21:49;;;;;;;1.60;1.45;;;;;;;14.91;81.10;99877.13;329602;29;17379;-86
2023/09/27 00:22:01;;;;;;;1.48;1.38;;;;;;;14.92;80.86;99879.69;334018;29;4538;-86
2023/09/27 00:22:13;;;;;;;1.45;1.30;;;;;;;14.92;80.92;99878.84;330735;29;17938;-86
2023/09/27 00:22:25;;;;;;;1.73;1.40;;;;;;;14.93;80.67;99875.28;333758;29;4568;-86
2023/09/27 00:22:37;;;;;;;1.63;1.40;;;;;;;14.93;80.96;99877.91;333082;29;4568;-87
2023/09/27 00:22:49;;;;;;;1.48;1.30;;;;;;;14.93;80.97;99870.06;325124;29;18212;-87
2023/09/27 00:23:01;;;;;;;1.60;1.40;;;;;;;14.92;81.05;99876.22;332426;29;4523;-86
2023/09/27 00:23:13;;;;;;;1.63;1.40;;;;;;;14.93;80.95;99880.53;330753;29;18888;-86
2023/09/27 00:23:26;;;;;;;1.90;1.35;;;;;;;14.93;81.22;99881.41;332445;29;4488;-86
2023/09/27 00:23:38;;;;;;;2.00;1.42;;;;;;;14.91;81.32;99871.91;329375;29;4589;-86
2023/09/27 00:23:50;;;;;;;2.78;1.60;;;;;;;14.91;81.31;99877.13;330755;29;16767;-86
2023/09/27 00:24:02;;;;;;;2.38;1.50;;;;;;;14.89;81.69;99872.00;329389;29;4550;-87
2023/09/27 00:24:14;;;;;;;1.65;1.40;;;;;;;14.88;81.41;99878.13;328436;29;10127;-86
2023/09/27 00:24:26;;;;;;;1.83;1.55;;;;;;;14.90;81.70;99876.28;326537;29;5292;-86
2023/09/27 00:24:39;;;;;;;2.08;1.60;;;;;;;14.92;81.46;99878.84;333030;29;4591;-86
2023/09/27 00:24:51;;;;;;;2.00;1.63;;;;;;;14.92;81.60;99868.38;330981;29;17391;-86
2023/09/27 00:25:04;;;;;;;1.70;1.50;;;;;;;14.93;81.39;99878.78;333435;29;4507;-86
2023/09/27 00:25:17;;;;;;;1.88;1.30;;;;;;;14.93;81.31;99865.69;325003;29;16115;-86
2023/09/27 00:25:29;;;;;;;1.95;1.20;;;;;;;14.96;81.64;99877.78;332775;29;4583;-86
2023/09/27 00:25:41;;;;;;;1.98;1.30;;;;;;;14.97;81.27;99874.25;328227;29;18010;-86
2023/09/27 00:25:53;;;;;;;2.60;1.50;;;;;;;14.98;81.24;99874.16;332457;29;4498;-86
2023/09/27 00:26:05;;;;;;;2.33;1.45;;;;;;;15.00;81.02;99874.09;330575;29;4550;-86
2023/09/27 00:26:17;;;;;;;2.00;1.40;;;;;;;15.01;81.21;99877.56;333734;29;5212;-87
2023/09/27 00:26:29;;;;;;;2.17;1.50;;;;;;;15.00;81.18;99868.84;332609;29;4540;-86
2023/09/27 00:26:41;;;;;;;2.22;1.58;;;;;;;15.01;81.28;99874.94;329745;29;17938;-86
2023/09/27 00:26:54;;;;;;;2.33;1.52;;;;;;;15.00;81.09;99876.72;332160;29;4557;-86
2023/09/27 00:27:06;;;;;;;2.20;1.42;;;;;;;14.99;81.22;99880.25;328706;29;17811;-86
2023/09/27 00:27:19;;;;;;;2.10;1.42;;;;;;;14.98;81.48;99875.94;332364;29;4561;-86
2023/09/27 00:27:33;;;;;;;1.80;1.45;;;;;;;14.98;81.26;99873.31;333274;29;4569;-86
2023/09/27 00:27:45;;;;;;;2.35;1.58;;;;;;;14.99;81.29;99875.03;331900;29;17679;-86
2023/09/27 00:27:57;;;;;;;2.95;1.70;;;;;;;14.99;81.10;99875.03;329301;28;17929;-86
2023/09/27 00:28:09;;;;;;;2.40;1.60;;;;;;;14.95;81.00;99876.06;334672;29;4720;-86
2023/09/27 00:28:22;;;;;;;1.95;1.52;;;;;;;14.95;81.14;99876.06;328733;29;16628;-86
2023/09/27 00:28:34;;;;;;;2.10;1.55;;;;;;;14.93;80.50;99876.16;330307;29;18607;-86
2023/09/27 00:28:46;;;;;;;2.10;1.60;;;;;;;14.92;81.47;99873.59;329159;29;17926;-86
2023/09/27 00:28:58;;;;;;;2.58;1.70;;;;;;;14.91;81.71;99883.25;326064;29;4664;-86
2023/09/27 00:29:10;;;;;;;3.22;1.90;;;;;;;14.93;81.86;99877.91;330999;29;4525;-86
2023/09/27 00:29:22;;;;;;;3.70;2.00;;;;;;;14.93;81.55;99880.53;327751;29;17271;-86
2023/09/27 00:29:34;;;;;;;3.45;1.77;;;;;;;14.93;81.91;99880.53;333496;29;4565;-86
2023/09/27 00:29:48;;;;;;;2.33;1.50;;;;;;;14.96;81.96;99877.78;332154;29;17905;-86
2023/09/27 00:30:00;;;;;;;1.55;1.30;;;;;;;14.97;81.47;99882.94;332885;29;4501;-86
2023/09/27 00:30:16;;;;;;;1.67;1.40;;;;;;;14.96;81.54;99875.16;330426;29;4545;-86
2023/09/27 00:30:28;;;;;;;2.53;1.88;;;;;;;14.95;81.70;99871.69;331006;29;17763;-86
2023/09/27 00:30:40;;;;;;;2.90;2.05;;;;;;;14.94;81.87;99877.84;333007;29;4671;-86
2023/09/27 00:30:52;;;;;;;2.47;1.80;;;;;;;14.93;81.74;99876.16;329728;29;19546;-86
2023/09/27 00:31:04;;;;;;;2.15;1.60;;;;;;;14.93;81.75;99884.00;333370;29;4589;-86
2023/09/27 00:31:16;;;;;;;2.10;1.50;;;;;;;14.92;81.64;99884.06;331835;29;4576;-87
2023/09/27 00:31:28;;;;;;;2.00;1.52;;;;;;;14.90;82.12;99870.22;329330;29;18034;-86
2023/09/27 00:31:40;;;;;;;1.95;1.60;;;;;;;14.92;81.96;99881.47;331994;29;5325;-87
2023/09/27 00:31:53;;;;;;;2.30;1.60;;;;;;;14.92;82.04;99876.22;326611;28;19072;-86
2023/09/27 00:32:05;;;;;;;8.40;1.70;;;;;;;14.95;81.73;99881.28;334130;28;4520;-86
2023/09/27 00:32:17;;;;;;;8.32;1.63;;;;;;;14.95;81.69;99879.56;330252;29;10998;-86
2023/09/27 00:32:29;;;;;;;1.92;1.48;;;;;;;14.99;81.55;99882.88;332220;29;4727;-86
2023/09/27 00:32:44;;;;;;;3.00;1.80;;;;;;;14.99;81.88;99872.41;332173;29;4727;-86
2023/09/27 00:32:57;;;;;;;2.85;1.80;;;;;;;14.99;81.99;99885.50;328415;29;16131;-86
2023/09/27 00:33:09;;;;;;;2.27;1.80;;;;;;;15.00;81.99;99881.94;328409;29;16787;-86
2023/09/27 00:33:21;;;;;;;2.90;1.98;;;;;;;14.99;82.11;99880.25;331701;29;4462;-86
2023/09/27 00:33:33;;;;;;;2.85;1.90;;;;;;;14.99;82.15;99882.88;332258;29;4521;-87
2023/09/27 00:33:45;;;;;;;3.00;2.00;;;;;;;15.00;82.40;99876.72;328345;29;17289;-86
2023/09/27 00:33:57;;;;;;;3.83;1.92;;;;;;;14.97;82.30;99877.72;331103;29;4540;-86
2023/09/27 00:34:09;;;;;;;3.30;1.65;;;;;;;14.99;82.08;99877.66;328123;29;17733;-86
2023/09/27 00:34:21;;;;;;;2.63;1.55;;;;;;;14.97;81.95;99876.88;330268;29;4525;-86
2023/09/27 00:34:34;;;;;;;1.60;1.45;;;;;;;14.98;82.32;99881.16;332112;29;4746;-87
2023/09/27 00:34:46;;;;;;;2.38;1.65;;;;;;;14.98;82.24;99878.56;329868;29;17594;-84
2023/09/27 00:34:59;;;;;;;2.38;1.63;;;;;;;15.00;82.20;99878.50;333581;29;4587;-86
2023/09/27 00:35:18;;;;;;;2.42;1.70;;;;;;;15.00;82.14;99881.09;329493;29;17875;-87
2023/09/27 00:35:31;;;;;;;3.47;1.75;;;;;;;15.00;82.40;99881.94;329443;29;17220;-86
2023/09/27 00:35:49;;;;;;;3.28;1.58;;;;;;;15.03;82.19;99881.81;331260;29;4777;-86
2023/09/27 00:36:02;;;;;;;2.75;1.70;;;;;;;15.00;82.50;99881.09;329300;29;18829;-86
2023/09/27 00:36:14;;;;;;;3.10;1.80;;;;;;;15.01;82.75;99875.81;332373;29;5213;-86
2023/09/27 00:36:26;;;;;;;3.30;1.90;;;;;;;15.01;82.72;99883.66;329470;29;4536;-86
2023/09/27 00:36:38;;;;;;;2.75;1.90;;;;;;;15.00;82.79;99884.56;332297;29;4493;-86
2023/09/27 00:36:50;;;;;;;2.60;1.67;;;;;;;15.02;82.78;99879.25;332418;29;4526;-86
2023/09/27 00:37:02;;;;;;;3.00;1.60;;;;;;;15.04;82.49;99882.66;328249;29;4558;-87
2023/09/27 00:37:14;;;;;;;3.80;1.80;;;;;;;15.05;82.69;99882.59;332386;29;4496;-86
2023/09/27 00:37:27;;;;;;;3.70;2.00;;;;;;;15.05;83.02;99879.97;329828;29;19421;-86
2023/09/27 00:37:39;;;;;;;2.53;2.00;;;;;;;15.05;83.37;99879.97;332367;29;4510;-86
2023/09/27 00:37:51;;;;;;;2.65;2.00;;;;;;;15.05;83.30;99884.34;332107;28;4477;-87
2023/09/27 00:38:06;;;;;;;3.60;2.10;;;;;;;15.04;83.70;99883.50;335471;28;4717;-87
2023/09/27 00:38:18;;;;;;;4.05;2.13;;;;;;;15.07;83.58;99880.75;327716;28;17198;-86
2023/09/27 00:38:30;;;;;;;3.03;2.03;;;;;;;15.05;83.49;99879.97;335096;29;4494;-87
2023/09/27 00:38:42;;;;;;;2.83;1.90;;;;;;;15.07;83.21;99887.72;331834;29;18320;-86
2023/09/27 00:38:54;;;;;;;2.65;2.00;;;;;;;15.09;83.22;99885.88;333464;29;4649;-87
2023/09/27 00:39:06;;;;;;;2.88;2.08;;;;;;;15.08;83.42;99885.03;329783;29;8616;-86
2023/09/27 00:39:18;;;;;;;3.10;2.00;;;;;;;15.05;83.50;99887.81;330445;29;4527;-86
2023/09/27 00:39:30;;;;;;;2.80;1.92;;;;;;;15.07;83.49;99878.13;330970;29;4541;-86
2023/09/27 00:39:42;;;;;;;2.25;1.80;;;;;;;15.08;83.55;99879.81;329721;29;11618;-87
2023/09/27 00:39:56;;;;;;;2.15;1.77;;;;;;;15.09;83.58;99885.88;333096;29;4625;-86
2023/09/27 00:40:11;;;;;;;2.67;1.80;;;;;;;15.09;83.42;99875.41;331857;29;4531;-86
2023/09/27 00:40:25;;;;;;;3.40;1.98;;;;;;;15.10;83.44;99882.38;331306;29;19088;-86
2023/09/27 00:40:43;;;;;;;5.43;2.10;;;;;;;15.11;83.42;99879.69;330981;29;9453;-86
2023/09/27 00:40:55;;;;;;;5.25;2.05;;;;;;;15.10;84.08;99883.19;330360;29;17690;-86
2023/09/27 00:41:08;;;;;;;3.53;2.17;;;;;;;15.10;83.88;99883.19;332476;28;4547;-86
2023/09/27 00:41:20;;;;;;;3.67;2.40;;;;;;;15.10;84.05;99883.19;331454;29;14814;-86
2023/09/27 00:41:32;;;;;;;3.63;2.33;;;;;;;15.10;84.11;99882.38;332148;29;4553;-86
2023/09/27 00:41:44;;;;;;;3.30;2.03;;;;;;;15.09;84.17;99884.13;331670;29;16508;-86
2023/09/27 00:41:56;;;;;;;3.47;2.17;;;;;;;15.11;83.69;99884.91;333804;29;4619;-86
2023/09/27 00:42:08;;;;;;;3.03;2.20;;;;;;;15.09;84.57;99886.75;333139;29;4721;-87
2023/09/27 00:42:20;;;;;;;3.05;2.10;;;;;;;15.11;84.43;99889.28;329952;29;11021;-86
2023/09/27 00:42:32;;;;;;;2.92;1.95;;;;;;;15.08;84.53;99887.66;332424;29;4541;-86
2023/09/27 00:42:47;;;;;;;3.42;2.20;;;;;;;15.08;84.58;99887.66;327986;29;10094;-86
2023/09/27 00:42:59;;;;;;;3.08;2.17;;;;;;;15.09;84.63;99878.91;332365;29;4798;-86
2023/09/27 00:43:24;;;;;;;3.30;2.17;;;;;;;15.12;84.83;99886.59;329182;29;18140;-86
2023/09/27 00:43:36;;;;;;;3.55;2.05;;;;;;;15.11;84.69;99884.91;329313;29;17382;-87
2023/09/27 00:43:48;;;;;;;3.95;2.10;;;;;;;15.12;84.43;99886.59;333483;29;4538;-86
2023/09/27 00:44:00;;;;;;;3.53;2.13;;;;;;;15.15;84.43;99881.22;329703;29;16351;-86
2023/09/27 00:44:12;;;;;;;3.20;2.20;;;;;;;15.16;83.98;99888.16;333661;29;4477;-86
2023/09/27 00:44:24;;;;;;;2.90;2.05;;;;;;;15.17;84.25;99879.38;332353;29;4474;-86
2023/09/27 00:44:37;;;;;;;2.40;1.85;;;;;;;15.17;84.56;99889.84;325193;29;17602;-86
2023/09/27 00:44:49;;;;;;;2.10;1.80;;;;;;;15.18;84.52;99881.06;334400;29;4510;-85
2023/09/27 00:45:01;;;;;;;2.53;1.98;;;;;;;15.17;84.60;99884.63;329742;29;4904;-86
2023/09/27 00:45:13;;;;;;;2.65;2.08;;;;;;;15.20;84.45;99890.63;333566;29;4838;-86
2023/09/27 00:45:25;;;;;;;2.47;1.90;;;;;;;15.17;84.32;99884.63;330152;29;18257;-86
2023/09/27 00:45:39;;;;;;;2.40;1.85;;;;;;;15.15;84.73;99886.47;331968;29;4498;-86
2023/09/27 00:45:53;;;;;;;2.17;1.70;;;;;;;15.15;84.67;99880.34;329033;29;9719;-86
2023/09/27 00:46:06;;;;;;;3.45;2.00;;;;;;;15.16;84.33;99893.38;332212;29;4746;-86
2023/09/27 00:46:19;;;;;;;4.00;2.30;;;;;;;15.17;84.34;99884.63;318072;29;18515;-86
2023/09/27 00:46:32;;;;;;;3.05;2.15;;;;;;;15.20;84.21;99895.88;328919;29;9059;-86
2023/09/27 00:46:44;;;;;;;2.78;2.08;;;;;;;15.20;84.24;99888.00;331054;29;4546;-86
2023/09/27 00:46:57;;;;;;;2.67;2.00;;;;;;;15.17;84.30;99889.84;328450;29;17262;-86
2023/09/27 00:47:09;;;;;;;3.38;2.05;;;;;;;15.18;84.06;99891.53;331059;29;4860;-86
2023/09/27 00:47:21;;;;;;;3.42;2.08;;;;;;;15.21;84.29;99890.53;328703;29;16824;-86
2023/09/27 00:47:35;;;;;;;2.75;1.83;;;;;;;15.22;84.17;99886.16;330778;29;4675;-86
2023/09/27 00:47:49;;;;;;;2.25;1.67;;;;;;;15.23;84.42;99893.09;328771;29;11637;-86
2023/09/27 00:48:02;;;;;;;1.85;1.60;;;;;;;15.23;83.86;99890.47;330759;29;15976;-87
2023/09/27 00:48:14;;;;;;;1.70;1.60;;;;;;;15.23;84.32;99899.19;331142;29;16970;-86
2023/09/27 00:48:27;;;;;;;2.58;1.75;;;;;;;15.20;84.46;99893.25;333063;29;4564;-86
2023/09/27 00:48:39;;;;;;;3.20;1.90;;;;;;;15.20;84.55;99898.50;330537;29;18115;-86
2023/09/27 00:48:51;;;;;;;2.83;2.08;;;;;;;15.20;84.56;99895.88;333340;29;4676;-87
2023/09/27 00:49:04;;;;;;;2.80;2.10;;;;;;;15.20;84.92;99901.09;329451;29;8742;-86
2023/09/27 00:49:16;;;;;;;3.05;2.10;;;;;;;15.20;84.82;99903.72;331989;29;4602;-87
2023/09/27 00:49:28;;;;;;;3.28;2.13;;;;;;;15.17;85.37;99900.34;332014;29;11483;-86
2023/09/27 00:49:43;;;;;;;2.80;2.00;;;;;;;15.18;84.90;99899.41;330802;29;16906;-86
2023/09/27 00:49:55;;;;;;;2.75;2.30;;;;;;;15.17;85.43;99900.34;331095;29;16645;-86
2023/09/27 00:50:11;;;;;;;3.22;2.47;;;;;;;15.20;84.91;99893.25;333897;29;4508;-86
2023/09/27 00:50:24;;;;;;;3.20;2.38;;;;;;;15.18;84.97;99902.00;330433;29;18708;-87
2023/09/27 00:50:36;;;;;;;3.40;2.20;;;;;;;15.18;84.95;99896.78;329649;29;16765;-86
2023/09/27 00:50:50;;;;;;;3.55;2.10;;;;;;;15.21;84.70;99898.38;332976;29;4807;-86
2023/09/27 00:51:04;;;;;;;3.80;2.20;;;;;;;15.23;84.89;99899.19;325362;29;18180;-85
2023/09/27 00:51:16;;;;;;;3.33;2.25;;;;;;;15.25;84.98;99901.72;330801;29;16698;-86
2023/09/27 00:51:29;;;;;;;2.83;1.98;;;;;;;15.25;84.98;99906.97;331911;29;4500;-87
2023/09/27 00:51:41;;;;;;;2.85;2.08;;;;;;;15.23;85.24;99899.19;327026;29;17893;-86
2023/09/27 00:51:53;;;;;;;2.50;2.15;;;;;;;15.24;85.28;99900.03;332291;29;4544;-86
2023/09/27 00:52:06;;;;;;;2.97;2.17;;;;;;;15.24;85.08;99902.66;330731;29;17796;-86
2023/09/27 00:52:18;;;;;;;3.42;2.15;;;;;;;15.24;84.84;99902.66;332348;29;4477;-86
2023/09/27 00:52:30;;;;;;;3.42;2.05;;;;;;;15.24;85.12;99905.28;328833;29;7686;-86
2023/09/27 00:52:45;;;;;;;3.55;2.13;;;;;;;15.20;85.21;99903.72;326367;29;4550;-86
2023/09/27 00:52:57;;;;;;;2.85;1.98;;;;;;;15.19;85.24;99905.47;327654;29;18011;-86
2023/09/27 00:53:09;;;;;;;2.38;1.88;;;;;;;15.20;85.07;99911.59;331004;29;4547;-86
2023/09/27 00:53:24;;;;;;;2.67;2.10;;;;;;;15.21;85.08;99905.41;329291;29;17076;-86
2023/09/27 00:53:37;;;;;;;2.40;1.83;;;;;;;15.21;85.00;99906.25;332028;29;4524;-86
2023/09/27 00:53:50;;;;;;;2.35;1.75;;;;;;;15.23;85.21;99903.56;334392;29;4557;-86
2023/09/27 00:54:02;;;;;;;2.92;2.05;;;;;;;15.20;85.48;99901.09;331188;29;19102;-86
2023/09/27 00:54:18;;;;;;;3.35;2.10;;;;;;;15.17;85.77;99905.56;320348;29;18084;-86
2023/09/27 00:54:31;;;;;;;3.35;2.10;;;;;;;15.18;85.44;99909.88;331595;28;16799;-86
2023/09/27 00:54:44;;;;;;;3.63;2.25;;;;;;;15.18;85.32;99904.63;333309;29;4713;-86
2023/09/27 00:54:56;;;;;;;3.10;2.10;;;;;;;15.19;85.61;99902.84;330559;29;17910;-86
2023/09/27 00:55:13;;;;;;;3.47;2.20;;;;;;;15.20;85.76;99903.72;333449;29;4856;-86
2023/09/27 00:55:25;;;;;;;4.07;2.13;;;;;;;15.21;85.49;99908.88;330240;29;17815;-86
2023/09/27 00:55:38;;;;;;;3.53;2.00;;;;;;;15.22;85.50;99901.88;324678;29;18825;-86
2023/09/27 00:55:50;;;;;;;2.45;1.88;;;;;;;15.21;85.75;99895.78;331852;29;4666;-87
2023/09/27 00:56:03;;;;;;;2.75;1.92;;;;;;;15.21;85.83;99905.41;329458;29;17980;-87
2023/09/27 00:56:16;;;;;;;3.22;2.05;;;;;;;15.20;85.73;99903.72;332127;29;4505;-85
2023/09/27 00:56:28;;;;;;;3.35;2.00;;;;;;;15.18;86.07;99907.25;332108;29;17716;-86
2023/09/27 00:56:40;;;;;;;2.90;1.83;;;;;;;15.17;86.20;99909.94;333434;29;4581;-86
2023/09/27 00:56:53;;;;;;;2.92;2.33;;;;;;;15.17;85.95;99908.19;327040;29;18004;-87
2023/09/27 00:57:05;;;;;;;3.25;2.45;;;;;;;15.20;86.11;99903.72;334292;28;4553;-86
2023/09/27 00:57:18;;;;;;;3.67;2.42;;;;;;;15.20;86.11;99906.34;330134;29;17492;-86
2023/09/27 00:57:30;;;;;;;3.17;1.98;;;;;;;15.20;86.31;99909.81;332821;29;4553;-87
2023/09/27 00:57:42;;;;;;;3.17;2.10;;;;;;;15.20;85.78;99914.19;330793;29;15954;-87
2023/09/27 00:57:55;;;;;;;3.47;2.30;;;;;;;15.22;85.77;99901.88;331526;29;4516;-86
2023/09/27 00:58:07;;;;;;;3.20;2.20;;;;;;;15.23;85.65;99899.19;330533;29;17334;-86
2023/09/27 00:58:20;;;;;;;3.17;2.00;;;;;;;15.21;85.81;99906.25;334313;29;4585;-86
2023/09/27 00:58:32;;;;;;;2.95;2.00;;;;;;;15.22;85.51;99901.88;327654;29;4635;-86
2023/09/27 00:58:45;;;;;;;2.70;1.90;;;;;;;15.22;85.94;99907.13;333647;29;4889;-86
2023/09/27 00:58:57;;;;;;;3.70;2.08;;;;;;;15.21;85.88;99906.25;332084;28;4489;-86
2023/09/27 00:59:10;;;;;;;3.78;2.17;;;;;;;15.23;85.86;99908.81;331711;29;16824;-86
2023/09/27 00:59:22;;;;;;;4.30;2.30;;;;;;;15.22;85.77;99896.66;330084;29;4562;-86
2023/09/27 00:59:36;;;;;;;3.35;2.17;;;;;;;15.23;85.61;99906.19;330142;29;4515;-86
2023/09/27 00:59:48;;;;;;;2.75;1.95;;;;;;;15.23;85.83;99898.31;325997;29;4752;-87
2023/09/27 01:00:00;;;;;;;2.83;2.00;;;;;;;15.22;85.88;99896.66;333623;29;16022;-86
2023/09/27 01:00:14;;;;;;;2.70;1.85;;;;;;;15.22;85.86;99901.88;332038;29;18975;-87
2023/09/27 01:00:28;;;;;;;2.92;1.80;;;;;;;15.21;85.94;99903.63;331345;29;4460;-87
2023/09/27 01:00:40;;;;;;;3.40;2.03;;;;;;;15.23;86.02;99899.19;330334;29;16823;-86